Time;durP1;ratioP1;P1;durP2;ratioP2;P2;SDS_P1;SDS_P2;PMS_P1;PMS_P2;Temp;Humidity;BMP_temperature;BMP_pressure;BME280_temperature;BME280_humidity;BME280_pressure;Samples;Min_cycle;Max_cycle;Signal;HPM_P1;HPM_P2
2023/08/15 00:00:09;;;;;;;7.07;6.30;;;;;;;;;;6155745;23;20509;-61
2023/08/15 00:02:37;;;;;;;7.93;7.10;;;;;;;;;;6156133;23;20485;-61
2023/08/15 00:05:05;;;;;;;5.90;5.37;;;;;;;;;;6156166;23;20514;-60
2023/08/15 00:07:32;;;;;;;7.00;5.53;;;;;;;;;;6156126;23;20493;-60
2023/08/15 00:09:58;;;;;;;4.90;4.50;;;;;;;;;;6155861;23;20493;-60
2023/08/15 00:12:25;;;;;;;4.47;4.07;;;;;;;;;;6156161;23;20814;-60
2023/08/15 00:14:52;;;;;;;4.67;4.13;;;;;;;;;;6156101;23;20568;-60
2023/08/15 00:17:21;;;;;;;4.43;4.03;;;;;;;;;;6156112;23;20498;-60
2023/08/15 00:19:49;;;;;;;4.67;3.80;;;;;;;;;;6155863;23;20439;-60
2023/08/15 00:22:17;;;;;;;4.83;4.07;;;;;;;;;;6156053;23;20498;-60
2023/08/15 00:24:44;;;;;;;3.77;3.47;;;;;;;;;;6155935;23;20414;-61
2023/08/15 00:27:11;;;;;;;4.50;3.60;;;;;;;;;;6156075;23;20498;-61
2023/08/15 00:29:38;;;;;;;4.00;3.70;;;;;;;;;;6156021;23;20529;-60
2023/08/15 00:32:05;;;;;;;4.63;4.23;;;;;;;;;;6156088;23;20498;-60
2023/08/15 00:34:32;;;;;;;4.97;4.47;;;;;;;;;;6156030;23;20486;-61
2023/08/15 00:37:00;;;;;;;5.97;4.20;;;;;;;;;;6156128;23;20497;-60
2023/08/15 00:39:29;;;;;;;5.40;4.60;;;;;;;;;;6157408;23;20445;-60
2023/08/15 00:41:56;;;;;;;4.60;3.83;;;;;;;;;;6157756;23;20493;-60
2023/08/15 00:44:23;;;;;;;6.33;4.07;;;;;;;;;;6157919;23;20443;-60
2023/08/15 00:46:50;;;;;;;4.50;4.00;;;;;;;;;;6157915;23;20792;-60
2023/08/15 00:49:17;;;;;;;3.40;3.17;;;;;;;;;;6157582;23;20485;-61
2023/08/15 00:51:44;;;;;;;4.80;3.70;;;;;;;;;;6167503;23;20423;-60
2023/08/15 00:54:12;;;;;;;5.83;4.20;;;;;;;;;;6157433;23;20970;-60
2023/08/15 00:56:39;;;;;;;3.80;3.50;;;;;;;;;;6157684;23;20413;-60
2023/08/15 00:59:06;;;;;;;4.00;3.67;;;;;;;;;;6157782;23;20431;-60
2023/08/15 01:01:33;;;;;;;3.13;2.93;;;;;;;;;;6157284;23;20953;-60
2023/08/15 01:04:00;;;;;;;4.17;3.30;;;;;;;;;;6157711;23;20406;-60
2023/08/15 01:06:27;;;;;;;4.03;3.00;;;;;;;;;;6157634;23;20497;-60
2023/08/15 01:08:55;;;;;;;2.93;2.50;;;;;;;;;;6157310;23;20919;-61
2023/08/15 01:11:23;;;;;;;4.10;2.70;;;;;;;;;;6157613;23;20743;-60
2023/08/15 01:13:53;;;;;;;3.40;3.10;;;;;;;;;;6157628;23;20489;-60
2023/08/15 01:16:23;;;;;;;4.03;2.40;;;;;;;;;;6157424;23;20435;-60
2023/08/15 01:18:52;;;;;;;2.93;2.33;;;;;;;;;;6157681;23;20458;-60
2023/08/15 01:21:24;;;;;;;2.83;2.50;;;;;;;;;;6157341;23;20816;-60
2023/08/15 01:23:53;;;;;;;3.87;2.60;;;;;;;;;;6167208;23;20395;-61
2023/08/15 01:26:20;;;;;;;2.50;2.30;;;;;;;;;;6157353;23;20798;-60
2023/08/15 01:28:47;;;;;;;2.73;2.47;;;;;;;;;;6157828;23;20435;-60
2023/08/15 01:31:16;;;;;;;3.13;2.60;;;;;;;;;;6157469;23;20445;-60
2023/08/15 01:33:46;;;;;;;5.03;3.03;;;;;;;;;;6157407;23;20434;-60
2023/08/15 01:36:16;;;;;;;4.00;3.10;;;;;;;;;;6167223;23;20391;-60
2023/08/15 01:38:44;;;;;;;4.17;3.20;;;;;;;;;;6157218;23;20490;-60
2023/08/15 01:41:14;;;;;;;2.70;2.50;;;;;;;;;;6157240;23;20985;-60
2023/08/15 01:43:42;;;;;;;3.30;3.10;;;;;;;;;;6167132;23;20395;-60
2023/08/15 01:46:09;;;;;;;3.13;2.83;;;;;;;;;;6157240;23;20489;-60
2023/08/15 01:48:40;;;;;;;4.37;3.30;;;;;;;;;;6157294;23;20491;-60
2023/08/15 01:51:07;;;;;;;3.40;3.10;;;;;;;;;;6156610;23;20438;-60
2023/08/15 01:53:34;;;;;;;3.17;2.90;;;;;;;;;;6157332;23;20444;-60
2023/08/15 01:56:01;;;;;;;3.33;2.93;;;;;;;;;;6157232;23;20534;-60
2023/08/15 01:58:29;;;;;;;3.70;3.40;;;;;;;;;;6157157;23;20712;-61
2023/08/15 02:00:56;;;;;;;3.87;2.87;;;;;;;;;;6157083;23;20830;-61
2023/08/15 02:03:23;;;;;;;3.73;2.70;;;;;;;;;;6157211;23;20445;-61
2023/08/15 02:05:51;;;;;;;3.00;2.80;;;;;;;;;;6157191;23;20414;-61
2023/08/15 02:08:18;;;;;;;4.77;3.00;;;;;;;;;;6156966;23;20490;-60
2023/08/15 02:10:47;;;;;;;4.10;3.10;;;;;;;;;;6157456;23;20410;-60
2023/08/15 02:13:14;;;;;;;4.20;3.80;;;;;;;;;;6156934;23;20633;-61
2023/08/15 02:15:42;;;;;;;6.13;3.83;;;;;;;;;;6157008;23;20486;-61
2023/08/15 02:18:09;;;;;;;3.87;2.97;;;;;;;;;;6157059;23;20491;-61
2023/08/15 02:20:36;;;;;;;3.70;3.40;;;;;;;;;;6156806;23;20431;-61
2023/08/15 02:23:03;;;;;;;4.50;3.20;;;;;;;;;;6157029;23;20979;-61
2023/08/15 02:25:30;;;;;;;4.90;3.23;;;;;;;;;;6156960;23;20490;-61
2023/08/15 02:27:57;;;;;;;3.03;2.83;;;;;;;;;;6156929;23;20494;-61
2023/08/15 02:30:25;;;;;;;3.57;3.37;;;;;;;;;;6156924;23;20494;-61
2023/08/15 02:32:53;;;;;;;4.60;4.20;;;;;;;;;;6156856;23;20403;-61
2023/08/15 02:35:20;;;;;;;3.83;3.37;;;;;;;;;;6156807;23;20489;-61
2023/08/15 02:37:47;;;;;;;4.47;4.10;;;;;;;;;;6156861;23;20431;-61
2023/08/15 02:40:14;;;;;;;3.23;3.03;;;;;;;;;;6156685;23;20493;-61
2023/08/15 02:42:41;;;;;;;3.40;3.20;;;;;;;;;;6156815;23;20494;-61
2023/08/15 02:45:08;;;;;;;3.90;3.57;;;;;;;;;;6156820;23;20434;-61
2023/08/15 02:47:35;;;;;;;3.80;3.50;;;;;;;;;;6156711;23;20696;-61
2023/08/15 02:50:04;;;;;;;3.90;3.37;;;;;;;;;;6156393;23;20521;-61
2023/08/15 02:52:30;;;;;;;3.90;3.60;;;;;;;;;;6156569;23;20779;-62
2023/08/15 02:54:57;;;;;;;4.00;3.70;;;;;;;;;;6156675;23;20494;-61
2023/08/15 02:57:26;;;;;;;4.87;3.90;;;;;;;;;;6156588;23;20486;-61
2023/08/15 02:59:53;;;;;;;5.00;3.60;;;;;;;;;;6156214;23;20494;-61
2023/08/15 03:02:20;;;;;;;4.43;3.97;;;;;;;;;;6156139;23;21036;-61
2023/08/15 03:04:47;;;;;;;4.23;3.90;;;;;;;;;;6156599;23;20776;-61
2023/08/15 03:07:15;;;;;;;4.50;3.97;;;;;;;;;;6156510;23;20481;-61
2023/08/15 03:09:42;;;;;;;4.33;3.63;;;;;;;;;;6156440;23;20485;-62
2023/08/15 03:12:09;;;;;;;4.33;3.77;;;;;;;;;;6156100;23;20442;-61
2023/08/15 03:14:36;;;;;;;3.97;3.77;;;;;;;;;;6156405;23;20481;-61
2023/08/15 03:17:03;;;;;;;3.77;3.47;;;;;;;;;;6156497;23;20728;-61
2023/08/15 03:19:30;;;;;;;4.27;3.50;;;;;;;;;;6156425;23;20486;-61
2023/08/15 03:21:57;;;;;;;4.20;3.80;;;;;;;;;;6156231;23;20538;-61
2023/08/15 03:24:25;;;;;;;3.80;3.50;;;;;;;;;;6156766;23;20485;-62
2023/08/15 03:26:52;;;;;;;3.47;3.27;;;;;;;;;;6156308;23;20489;-60
2023/08/15 03:29:19;;;;;;;3.67;3.40;;;;;;;;;;6156453;23;20490;-60
2023/08/15 03:31:46;;;;;;;4.10;3.80;;;;;;;;;;6156321;23;20824;-60
2023/08/15 03:34:13;;;;;;;4.17;3.77;;;;;;;;;;6156327;23;20489;-60
2023/08/15 03:36:40;;;;;;;4.37;4.17;;;;;;;;;;6156298;23;20482;-60
2023/08/15 03:39:09;;;;;;;4.10;3.70;;;;;;;;;;6156205;23;20613;-61
2023/08/15 03:41:37;;;;;;;4.17;3.73;;;;;;;;;;6156098;23;20529;-60
2023/08/15 03:44:05;;;;;;;4.07;3.77;;;;;;;;;;6156124;23;20783;-60
2023/08/15 03:46:32;;;;;;;4.80;4.33;;;;;;;;;;6156189;23;20485;-60
2023/08/15 03:48:59;;;;;;;3.90;3.70;;;;;;;;;;6156161;23;20493;-61
2023/08/15 03:51:25;;;;;;;4.97;4.67;;;;;;;;;;6155541;23;20446;-60
2023/08/15 03:53:52;;;;;;;4.60;4.17;;;;;;;;;;6156214;23;20457;-60
2023/08/15 03:56:19;;;;;;;5.97;4.73;;;;;;;;;;6156215;23;20493;-60
2023/08/15 03:58:47;;;;;;;5.33;4.87;;;;;;;;;;6156221;23;20498;-60
2023/08/15 04:01:14;;;;;;;5.27;4.87;;;;;;;;;;6156033;23;20514;-60
2023/08/15 04:03:41;;;;;;;5.50;5.00;;;;;;;;;;6156169;23;20490;-60
2023/08/15 04:06:08;;;;;;;5.40;4.90;;;;;;;;;;6155749;23;20898;-60
2023/08/15 04:08:35;;;;;;;5.30;4.90;;;;;;;;;;6156096;23;20407;-60
2023/08/15 04:11:03;;;;;;;6.53;5.30;;;;;;;;;;6156042;23;20503;-60
2023/08/15 04:13:30;;;;;;;5.00;4.50;;;;;;;;;;6157743;23;20407;-60
2023/08/15 04:15:58;;;;;;;6.37;5.77;;;;;;;;;;6158091;23;20489;-60
2023/08/15 04:18:25;;;;;;;6.40;5.80;;;;;;;;;;6158028;23;20490;-60
2023/08/15 04:20:52;;;;;;;6.50;6.00;;;;;;;;;;6157907;23;20514;-60
2023/08/15 04:23:18;;;;;;;6.33;5.67;;;;;;;;;;6158008;23;20497;-60
2023/08/15 04:25:45;;;;;;;6.67;5.90;;;;;;;;;;6157981;23;20771;-60
2023/08/15 04:28:12;;;;;;;6.10;5.67;;;;;;;;;;6157971;23;20406;-60
2023/08/15 04:30:39;;;;;;;6.00;5.70;;;;;;;;;;6157958;23;20486;-60
2023/08/15 04:33:09;;;;;;;7.63;6.93;;;;;;;;;;6157501;23;20909;-61
2023/08/15 04:35:39;;;;;;;8.77;7.87;;;;;;;;;;6157602;23;20438;-62
2023/08/15 04:38:06;;;;;;;8.43;7.80;;;;;;;;;;6167569;23;20689;-60
2023/08/15 04:40:33;;;;;;;7.60;6.97;;;;;;;;;;6157922;23;20437;-60
2023/08/15 04:43:00;;;;;;;6.90;6.30;;;;;;;;;;6157806;23;20473;-61
2023/08/15 04:45:27;;;;;;;8.77;7.87;;;;;;;;;;6157810;23;20430;-61
2023/08/15 04:47:58;;;;;;;9.40;7.63;;;;;;;;;;6157886;23;20442;-61
2023/08/15 04:50:28;;;;;;;7.70;7.03;;;;;;;;;;6161465;23;20518;-61
2023/08/15 04:52:55;;;;;;;7.60;6.90;;;;;;;;;;6157620;23;20493;-61
2023/08/15 04:55:22;;;;;;;7.83;7.13;;;;;;;;;;6157339;23;20882;-61
2023/08/15 04:57:48;;;;;;;7.33;6.63;;;;;;;;;;6157698;23;20787;-61
2023/08/15 05:00:19;;;;;;;7.23;6.50;;;;;;;;;;6157810;23;20808;-62
2023/08/15 05:02:46;;;;;;;7.07;6.47;;;;;;;;;;6157431;23;20525;-61
2023/08/15 05:05:13;;;;;;;6.93;6.33;;;;;;;;;;6157649;23;20490;-61
2023/08/15 05:07:42;;;;;;;7.50;6.83;;;;;;;;;;6157568;23;20780;-61
2023/08/15 05:10:09;;;;;;;7.97;7.30;;;;;;;;;;6157097;23;20949;-61
2023/08/15 05:12:36;;;;;;;6.87;6.20;;;;;;;;;;6157651;23;20723;-61
2023/08/15 05:15:03;;;;;;;7.93;7.23;;;;;;;;;;6157588;23;20490;-61
2023/08/15 05:17:30;;;;;;;8.63;7.03;;;;;;;;;;6157585;23;20768;-61
2023/08/15 05:19:56;;;;;;;7.30;6.60;;;;;;;;;;6157539;23;20437;-61
2023/08/15 05:22:23;;;;;;;7.20;6.20;;;;;;;;;;6157305;23;20470;-61
2023/08/15 05:24:52;;;;;;;7.60;5.83;;;;;;;;;;6157355;23;20493;-61
2023/08/15 05:27:18;;;;;;;7.37;6.47;;;;;;;;;;6156936;23;20945;-61
2023/08/15 05:29:45;;;;;;;4.90;4.57;;;;;;;;;;6157397;23;20461;-61
2023/08/15 05:32:12;;;;;;;6.03;5.57;;;;;;;;;;6157398;23;20498;-61
2023/08/15 05:34:39;;;;;;;6.10;5.70;;;;;;;;;;6157370;23;20487;-61
2023/08/15 05:37:06;;;;;;;5.57;5.03;;;;;;;;;;6157306;23;20495;-61
2023/08/15 05:39:33;;;;;;;6.47;5.97;;;;;;;;;;6157307;23;20486;-61
2023/08/15 05:42:01;;;;;;;5.63;5.23;;;;;;;;;;6157253;23;20977;-61
2023/08/15 05:44:28;;;;;;;6.30;5.80;;;;;;;;;;6157227;23;20490;-60
2023/08/15 05:46:55;;;;;;;6.57;5.97;;;;;;;;;;6157231;23;20461;-61
2023/08/15 05:49:21;;;;;;;5.37;4.97;;;;;;;;;;6156867;23;20490;-61
2023/08/15 05:51:48;;;;;;;6.10;5.50;;;;;;;;;;6166870;23;20474;-61
2023/08/15 05:54:15;;;;;;;6.37;5.87;;;;;;;;;;6157093;23;20445;-61
2023/08/15 05:56:42;;;;;;;7.00;6.50;;;;;;;;;;6157176;23;20431;-61
2023/08/15 05:59:10;;;;;;;5.90;5.50;;;;;;;;;;6157098;23;20432;-60
2023/08/15 06:01:38;;;;;;;6.13;5.27;;;;;;;;;;6157282;23;20521;-61
2023/08/15 06:04:06;;;;;;;6.33;5.83;;;;;;;;;;6156858;23;20435;-60
2023/08/15 06:06:33;;;;;;;6.57;6.17;;;;;;;;;;6156943;23;20407;-61
2023/08/15 06:09:01;;;;;;;5.93;5.63;;;;;;;;;;6156966;23;20715;-61
2023/08/15 06:11:28;;;;;;;5.73;5.33;;;;;;;;;;6156862;23;20418;-60
2023/08/15 06:13:55;;;;;;;6.50;5.77;;;;;;;;;;6156993;23;20481;-60
2023/08/15 06:16:23;;;;;;;5.90;5.50;;;;;;;;;;6157021;23;20498;-61
2023/08/15 06:18:50;;;;;;;5.73;5.33;;;;;;;;;;6156797;23;20485;-61
2023/08/15 06:21:19;;;;;;;6.13;5.70;;;;;;;;;;6156661;23;20490;-60
2023/08/15 06:23:48;;;;;;;6.20;5.70;;;;;;;;;;6156741;23;20494;-60
2023/08/15 06:26:15;;;;;;;6.37;5.77;;;;;;;;;;6156737;23;20490;-60
2023/08/15 06:28:42;;;;;;;6.77;5.17;;;;;;;;;;6156771;23;20494;-60
2023/08/15 06:31:08;;;;;;;6.40;6.00;;;;;;;;;;6156777;23;20434;-60
2023/08/15 06:33:37;;;;;;;6.10;5.70;;;;;;;;;;6156699;23;20792;-61
2023/08/15 06:36:04;;;;;;;5.63;5.33;;;;;;;;;;6156119;23;20406;-61
2023/08/15 06:38:31;;;;;;;7.07;5.50;;;;;;;;;;6156676;23;20445;-61
2023/08/15 06:40:58;;;;;;;5.67;5.27;;;;;;;;;;6156607;23;20465;-60
2023/08/15 06:43:25;;;;;;;5.70;5.40;;;;;;;;;;6156572;23;20454;-60
2023/08/15 06:45:52;;;;;;;6.03;5.63;;;;;;;;;;6156631;23;20747;-60
2023/08/15 06:48:19;;;;;;;6.50;6.10;;;;;;;;;;6156576;23;20407;-61
2023/08/15 06:50:49;;;;;;;6.20;5.60;;;;;;;;;;6156062;23;20537;-61
2023/08/15 06:53:16;;;;;;;6.13;5.63;;;;;;;;;;6156380;23;20735;-60
2023/08/15 06:55:43;;;;;;;6.07;5.67;;;;;;;;;;6156656;23;20510;-61
2023/08/15 06:58:10;;;;;;;5.63;5.33;;;;;;;;;;6156568;23;20494;-61
2023/08/15 07:00:37;;;;;;;6.13;5.50;;;;;;;;;;6156373;23;20407;-61
2023/08/15 07:03:04;;;;;;;6.27;5.80;;;;;;;;;;6156369;23;20442;-61
2023/08/15 07:05:31;;;;;;;6.13;5.27;;;;;;;;;;6156486;23;20435;-61
2023/08/15 07:07:59;;;;;;;5.23;4.87;;;;;;;;;;6156447;23;20445;-61
2023/08/15 07:10:26;;;;;;;6.40;5.83;;;;;;;;;;6156376;23;20723;-61
2023/08/15 07:12:53;;;;;;;5.90;5.50;;;;;;;;;;6156301;23;20814;-61
2023/08/15 07:15:20;;;;;;;5.27;4.87;;;;;;;;;;6156310;23;20928;-61
2023/08/15 07:17:49;;;;;;;5.40;5.10;;;;;;;;;;6156219;23;20439;-61
2023/08/15 07:20:16;;;;;;;6.30;4.80;;;;;;;;;;6156230;23;20495;-59
2023/08/15 07:22:45;;;;;;;5.63;5.13;;;;;;;;;;6156131;23;20529;-60
2023/08/15 07:25:13;;;;;;;6.40;5.90;;;;;;;;;;6156207;23;20489;-60
2023/08/15 07:27:40;;;;;;;5.40;5.00;;;;;;;;;;6156120;23;20493;-60
2023/08/15 07:30:07;;;;;;;5.87;5.33;;;;;;;;;;6156292;23;20407;-60
2023/08/15 07:32:36;;;;;;;5.93;5.50;;;;;;;;;;6156011;23;20410;-61
2023/08/15 07:35:05;;;;;;;5.93;5.47;;;;;;;;;;6155764;23;20417;-59
2023/08/15 07:37:32;;;;;;;6.77;6.27;;;;;;;;;;6156009;23;20407;-60
2023/08/15 07:40:04;;;;;;;5.90;5.20;;;;;;;;;;6156065;23;20407;-60
2023/08/15 07:42:32;;;;;;;5.83;5.43;;;;;;;;;;6165809;23;20517;-60
2023/08/15 07:44:59;;;;;;;6.00;5.60;;;;;;;;;;6155948;23;20498;-59
2023/08/15 07:47:26;;;;;;;6.93;6.20;;;;;;;;;;6155940;23;20438;-60
2023/08/15 07:50:14;;;;;;;6.23;5.90;;;;;;;;;;6155756;23;20446;-60
2023/08/15 07:52:41;;;;;;;6.87;6.30;;;;;;;;;;6165333;23;20410;-61
2023/08/15 07:55:08;;;;;;;6.23;5.53;;;;;;;;;;6156044;23;20489;-60
2023/08/15 07:57:39;;;;;;;6.13;5.70;;;;;;;;;;6155634;23;20398;-61
2023/08/15 08:00:08;;;;;;;5.90;5.40;;;;;;;;;;6165673;23;20511;-59
2023/08/15 08:02:35;;;;;;;6.63;6.13;;;;;;;;;;6155787;23;20446;-60
2023/08/15 08:05:02;;;;;;;6.53;6.03;;;;;;;;;;6155928;23;20403;-62
2023/08/15 08:07:32;;;;;;;6.30;5.90;;;;;;;;;;6154975;23;20938;-61
2023/08/15 08:09:59;;;;;;;6.93;6.40;;;;;;;;;;6155500;23;20731;-60
2023/08/15 08:12:26;;;;;;;7.13;6.37;;;;;;;;;;6155239;23;20410;-60
2023/08/15 08:14:54;;;;;;;7.53;6.73;;;;;;;;;;6155335;23;20470;-61
2023/08/15 08:17:21;;;;;;;6.90;6.37;;;;;;;;;;6155507;23;20720;-60
2023/08/15 08:19:48;;;;;;;10.90;6.93;;;;;;;;;;6155309;23;20438;-61
2023/08/15 08:22:15;;;;;;;7.17;6.67;;;;;;;;;;6155773;23;20822;-62
2023/08/15 08:24:42;;;;;;;6.57;5.97;;;;;;;;;;6155899;23;20438;-61
2023/08/15 08:27:12;;;;;;;6.97;6.47;;;;;;;;;;6155734;23;20502;-60
2023/08/15 08:29:39;;;;;;;10.87;6.70;;;;;;;;;;6165416;23;20470;-59
2023/08/15 08:32:08;;;;;;;7.03;6.63;;;;;;;;;;6155659;23;20718;-62
2023/08/15 08:34:34;;;;;;;7.60;7.00;;;;;;;;;;6155818;23;20407;-61
2023/08/15 08:37:02;;;;;;;7.10;6.60;;;;;;;;;;6155708;23;20487;-61
2023/08/15 08:39:28;;;;;;;7.50;7.00;;;;;;;;;;6155671;23;20493;-61
2023/08/15 08:41:55;;;;;;;7.10;6.60;;;;;;;;;;6155740;23;20431;-61
2023/08/15 08:44:23;;;;;;;6.93;6.43;;;;;;;;;;6155799;23;20521;-60
2023/08/15 08:46:50;;;;;;;7.50;6.90;;;;;;;;;;6155614;23;20689;-61
2023/08/15 08:49:19;;;;;;;10.13;6.97;;;;;;;;;;6155485;23;20494;-61
2023/08/15 08:51:47;;;;;;;8.23;7.63;;;;;;;;;;6165310;23;20486;-61
2023/08/15 08:54:16;;;;;;;11.20;7.40;;;;;;;;;;6155258;23;20417;-61
2023/08/15 08:56:44;;;;;;;9.97;8.77;;;;;;;;;;6155423;23;20489;-61
2023/08/15 08:59:12;;;;;;;8.10;7.30;;;;;;;;;;6156328;23;20552;-61
2023/08/15 09:01:40;;;;;;;7.50;7.00;;;;;;;;;;6157448;23;20438;-61
2023/08/15 09:04:07;;;;;;;7.90;7.20;;;;;;;;;;6157465;23;20442;-62
2023/08/15 09:06:35;;;;;;;8.10;7.40;;;;;;;;;;6157594;23;20434;-61
2023/08/15 09:09:03;;;;;;;8.07;7.47;;;;;;;;;;6157374;23;20466;-61
2023/08/15 09:11:33;;;;;;;8.67;7.83;;;;;;;;;;6157352;23;20403;-61
2023/08/15 09:14:02;;;;;;;7.07;6.57;;;;;;;;;;6167127;23;20402;-60
2023/08/15 09:16:29;;;;;;;7.60;6.70;;;;;;;;;;6156409;23;20965;-60
2023/08/15 09:18:56;;;;;;;7.40;6.90;;;;;;;;;;6155272;23;20434;-60
2023/08/15 09:21:29;;;;;;;7.80;7.23;;;;;;;;;;6155759;23;20407;-60
2023/08/15 09:23:59;;;;;;;8.10;7.60;;;;;;;;;;6165131;23;20525;-61
2023/08/15 09:26:26;;;;;;;6.93;6.50;;;;;;;;;;6155504;23;20469;-61
2023/08/15 09:28:53;;;;;;;7.80;7.30;;;;;;;;;;6155690;23;20813;-61
2023/08/15 09:31:19;;;;;;;7.47;6.97;;;;;;;;;;6155749;23;20439;-60
2023/08/15 09:33:47;;;;;;;7.70;7.23;;;;;;;;;;6157354;23;20414;-61
2023/08/15 09:36:14;;;;;;;8.60;8.00;;;;;;;;;;6157305;23;20418;-61
2023/08/15 09:38:41;;;;;;;7.30;6.83;;;;;;;;;;6157326;23;20481;-61
2023/08/15 09:41:13;;;;;;;7.63;7.13;;;;;;;;;;6157281;23;20498;-61
2023/08/15 09:43:52;;;;;;;8.00;7.50;;;;;;;;;;6166928;23;20993;-61
2023/08/15 09:46:19;;;;;;;7.93;6.80;;;;;;;;;;6166975;23;20481;-61
2023/08/15 09:48:47;;;;;;;8.80;8.00;;;;;;;;;;6157167;23;20444;-61
2023/08/15 09:51:15;;;;;;;7.10;6.67;;;;;;;;;;6156649;23;21005;-60
2023/08/15 09:53:44;;;;;;;6.77;6.47;;;;;;;;;;6157103;23;20415;-61
2023/08/15 09:56:12;;;;;;;7.07;6.63;;;;;;;;;;6156787;23;20494;-61
2023/08/15 09:58:39;;;;;;;7.97;7.23;;;;;;;;;;6156956;23;20495;-61
2023/08/15 10:01:08;;;;;;;7.97;7.47;;;;;;;;;;6157073;23;20439;-61
2023/08/15 10:03:37;;;;;;;8.20;7.60;;;;;;;;;;6156692;23;20804;-60
2023/08/15 10:06:04;;;;;;;8.60;8.00;;;;;;;;;;6156793;23;20410;-61
2023/08/15 10:08:32;;;;;;;9.07;8.00;;;;;;;;;;6156900;23;20407;-61
2023/08/15 10:11:04;;;;;;;8.13;7.60;;;;;;;;;;6156397;23;20534;-61
2023/08/15 10:13:32;;;;;;;8.60;7.87;;;;;;;;;;6166348;23;20879;-61
2023/08/15 10:16:00;;;;;;;8.57;7.70;;;;;;;;;;6156815;23;20411;-60
2023/08/15 10:18:27;;;;;;;7.53;7.00;;;;;;;;;;6156697;23;20490;-61
2023/08/15 10:20:56;;;;;;;9.43;8.50;;;;;;;;;;6156903;23;20489;-60
2023/08/15 10:23:25;;;;;;;7.77;7.17;;;;;;;;;;6156699;23;20435;-60
2023/08/15 10:25:57;;;;;;;14.20;6.90;;;;;;;;;;6156593;23;20442;-61
2023/08/15 10:28:24;;;;;;;7.97;7.27;;;;;;;;;;6166561;23;20395;-60
2023/08/15 10:30:52;;;;;;;7.80;7.30;;;;;;;;;;6156727;23;20410;-61
2023/08/15 10:33:20;;;;;;;7.10;6.60;;;;;;;;;;6156710;23;20833;-61
2023/08/15 10:36:05;;;;;;;7.47;6.97;;;;;;;;;;6156724;23;20489;-61
2023/08/15 10:38:35;;;;;;;7.47;7.03;;;;;;;;;;6166429;23;20426;-60
2023/08/15 10:41:02;;;;;;;7.77;7.07;;;;;;;;;;6156471;23;20407;-61
2023/08/15 10:43:31;;;;;;;8.10;7.30;;;;;;;;;;6156396;23;20463;-61
2023/08/15 10:46:01;;;;;;;7.87;7.20;;;;;;;;;;6156533;23;20724;-61
2023/08/15 10:48:37;;;;;;;7.30;6.90;;;;;;;;;;6156393;23;20498;-61
2023/08/15 10:51:04;;;;;;;8.13;6.90;;;;;;;;;;6156013;23;20489;-60
2023/08/15 10:53:31;;;;;;;8.13;7.60;;;;;;;;;;6156506;23;20511;-61
2023/08/15 10:55:58;;;;;;;8.33;7.50;;;;;;;;;;6156521;23;20494;-61
2023/08/15 10:58:25;;;;;;;8.50;7.90;;;;;;;;;;6156560;23;20403;-61
2023/08/15 11:00:52;;;;;;;7.83;7.23;;;;;;;;;;6156490;23;20481;-61
2023/08/15 11:03:21;;;;;;;8.37;7.77;;;;;;;;;;6156056;23;20453;-61
2023/08/15 11:05:48;;;;;;;8.23;7.53;;;;;;;;;;6156430;23;20438;-61
2023/08/15 11:08:16;;;;;;;7.47;6.87;;;;;;;;;;6156543;23;20485;-60
2023/08/15 11:10:44;;;;;;;7.80;7.30;;;;;;;;;;6156371;23;20438;-61
2023/08/15 11:13:11;;;;;;;7.93;7.43;;;;;;;;;;6156408;23;20434;-61
2023/08/15 11:15:38;;;;;;;8.70;7.90;;;;;;;;;;6156421;23;20411;-60
2023/08/15 11:18:05;;;;;;;7.87;7.37;;;;;;;;;;6156329;23;20490;-61
2023/08/15 11:20:35;;;;;;;9.50;8.57;;;;;;;;;;6156195;23;20493;-60
2023/08/15 11:23:02;;;;;;;8.70;8.07;;;;;;;;;;6166157;23;20429;-61
2023/08/15 11:25:29;;;;;;;8.67;8.17;;;;;;;;;;6156215;23;20453;-61
2023/08/15 11:27:56;;;;;;;7.97;7.37;;;;;;;;;;6156372;23;20502;-61
2023/08/15 11:30:23;;;;;;;7.80;7.30;;;;;;;;;;6156200;23;20411;-61
2023/08/15 11:32:50;;;;;;;8.60;7.93;;;;;;;;;;6156314;23;20800;-61
2023/08/15 11:35:19;;;;;;;7.90;7.40;;;;;;;;;;6156193;23;20433;-60
2023/08/15 11:37:47;;;;;;;8.20;7.57;;;;;;;;;;6155992;23;20418;-61
2023/08/15 11:40:14;;;;;;;6.80;6.40;;;;;;;;;;6155869;23;20975;-61
2023/08/15 11:42:41;;;;;;;8.80;8.10;;;;;;;;;;6156117;23;20403;-61
2023/08/15 11:45:11;;;;;;;8.97;8.20;;;;;;;;;;6155823;23;20526;-62
2023/08/15 11:47:52;;;;;;;8.67;7.97;;;;;;;;;;6155944;23;20486;-61
2023/08/15 11:50:22;;;;;;;9.03;8.33;;;;;;;;;;6158217;23;20522;-61
2023/08/15 11:52:50;;;;;;;9.20;8.67;;;;;;;;;;6155733;23;20403;-61
2023/08/15 11:55:19;;;;;;;9.03;8.33;;;;;;;;;;6155871;23;20429;-61
2023/08/15 11:57:46;;;;;;;11.57;9.37;;;;;;;;;;6155621;23;20407;-61
2023/08/15 12:00:16;;;;;;;9.27;8.63;;;;;;;;;;6155569;23;20965;-61
2023/08/15 12:02:45;;;;;;;8.87;8.27;;;;;;;;;;6155701;23;20441;-61
2023/08/15 12:05:13;;;;;;;8.67;8.07;;;;;;;;;;6155801;23;20466;-62
2023/08/15 12:07:40;;;;;;;8.83;8.13;;;;;;;;;;6155971;23;20481;-61
2023/08/15 12:10:09;;;;;;;9.77;9.07;;;;;;;;;;6155874;23;20442;-62
2023/08/15 12:12:39;;;;;;;9.30;8.50;;;;;;;;;;6155776;23;20493;-60
2023/08/15 12:15:07;;;;;;;9.07;8.43;;;;;;;;;;6155694;23;20408;-61
2023/08/15 12:17:34;;;;;;;10.70;10.00;;;;;;;;;;6155827;23;20485;-61
2023/08/15 12:20:02;;;;;;;9.23;8.40;;;;;;;;;;6155863;23;20411;-60
2023/08/15 12:22:29;;;;;;;9.10;8.40;;;;;;;;;;6155612;23;20442;-60
2023/08/15 12:24:56;;;;;;;9.30;8.60;;;;;;;;;;6155627;23;20526;-61
2023/08/15 12:27:29;;;;;;;9.40;8.40;;;;;;;;;;6155301;23;20493;-61
2023/08/15 12:29:56;;;;;;;8.73;8.30;;;;;;;;;;6165330;23;20938;-61
2023/08/15 12:32:23;;;;;;;9.73;9.13;;;;;;;;;;6155872;23;20517;-61
2023/08/15 12:34:50;;;;;;;10.50;9.50;;;;;;;;;;6157889;23;20428;-61
2023/08/15 12:37:17;;;;;;;8.97;8.07;;;;;;;;;;6157843;23;20787;-61
2023/08/15 12:39:44;;;;;;;9.07;8.40;;;;;;;;;;6157924;23;20477;-61
2023/08/15 12:42:13;;;;;;;9.77;8.97;;;;;;;;;;6157826;23;20407;-61
2023/08/15 12:44:41;;;;;;;8.63;8.00;;;;;;;;;;6157541;23;20505;-61
2023/08/15 12:47:09;;;;;;;9.30;8.60;;;;;;;;;;6157811;23;20410;-61
2023/08/15 12:49:36;;;;;;;9.53;8.73;;;;;;;;;;6157317;23;20440;-62
2023/08/15 12:52:03;;;;;;;9.27;8.77;;;;;;;;;;6167392;23;20766;-61
2023/08/15 12:54:30;;;;;;;9.83;9.03;;;;;;;;;;6157700;23;20438;-61
2023/08/15 12:56:58;;;;;;;8.90;8.40;;;;;;;;;;6157494;23;20407;-61
2023/08/15 12:59:25;;;;;;;8.80;8.10;;;;;;;;;;6157462;23;20408;-62
2023/08/15 13:01:55;;;;;;;8.83;8.03;;;;;;;;;;6157654;23;20772;-61
2023/08/15 13:04:22;;;;;;;8.97;8.37;;;;;;;;;;6167243;23;20790;-61
2023/08/15 13:06:49;;;;;;;10.53;9.70;;;;;;;;;;6157602;23;20482;-61
2023/08/15 13:09:21;;;;;;;8.90;8.20;;;;;;;;;;6157645;23;20498;-61
2023/08/15 13:11:47;;;;;;;9.73;8.90;;;;;;;;;;6167318;23;20397;-62
2023/08/15 13:14:14;;;;;;;9.43;8.57;;;;;;;;;;6157612;23;20408;-61
2023/08/15 13:16:41;;;;;;;9.07;8.37;;;;;;;;;;6157537;23;20485;-61
2023/08/15 13:19:11;;;;;;;9.87;9.20;;;;;;;;;;6157578;23;20418;-61
2023/08/15 13:21:38;;;;;;;8.10;7.47;;;;;;;;;;6157401;23;20482;-61
2023/08/15 13:24:08;;;;;;;8.60;8.10;;;;;;;;;;6157826;23;20817;-61
2023/08/15 13:26:34;;;;;;;8.80;8.00;;;;;;;;;;6157102;23;20478;-61
2023/08/15 13:29:01;;;;;;;8.90;8.40;;;;;;;;;;6157399;23;20493;-61
2023/08/15 13:31:31;;;;;;;8.73;7.97;;;;;;;;;;6157276;23;20414;-61
2023/08/15 13:33:58;;;;;;;8.53;8.03;;;;;;;;;;6157165;23;20467;-61
2023/08/15 13:36:27;;;;;;;9.43;8.60;;;;;;;;;;6156753;23;20938;-61
2023/08/15 13:38:54;;;;;;;9.13;8.43;;;;;;;;;;6157281;23;20444;-62
2023/08/15 13:41:21;;;;;;;7.80;7.30;;;;;;;;;;6157365;23;20807;-61
2023/08/15 13:43:50;;;;;;;7.90;7.20;;;;;;;;;;6157129;23;20491;-61
2023/08/15 13:46:16;;;;;;;7.40;7.00;;;;;;;;;;6157044;23;20517;-61
2023/08/15 13:48:43;;;;;;;9.00;8.40;;;;;;;;;;6156899;23;20494;-61
2023/08/15 13:51:15;;;;;;;9.00;8.40;;;;;;;;;;6156634;23;20513;-61
2023/08/15 13:53:43;;;;;;;8.20;7.60;;;;;;;;;;6166899;23;20450;-61
2023/08/15 13:56:11;;;;;;;7.87;7.30;;;;;;;;;;6156918;23;20798;-61
2023/08/15 13:58:38;;;;;;;7.63;7.10;;;;;;;;;;6157178;23;20915;-61
2023/08/15 14:01:05;;;;;;;9.37;8.47;;;;;;;;;;6157197;23;20407;-61
2023/08/15 14:03:34;;;;;;;8.87;7.63;;;;;;;;;;6157246;23;20693;-61
2023/08/15 14:06:03;;;;;;;8.67;7.83;;;;;;;;;;6156903;23;20819;-61
2023/08/15 14:08:30;;;;;;;7.80;6.87;;;;;;;;;;6157000;23;20457;-61
2023/08/15 14:10:58;;;;;;;7.23;6.73;;;;;;;;;;6157095;23;20711;-61
2023/08/15 14:13:25;;;;;;;8.00;7.50;;;;;;;;;;6157020;23;20494;-61
2023/08/15 14:15:52;;;;;;;6.97;6.47;;;;;;;;;;6156930;23;20490;-62
2023/08/15 14:18:19;;;;;;;7.80;7.20;;;;;;;;;;6156975;23;20446;-61
2023/08/15 14:20:46;;;;;;;6.60;6.20;;;;;;;;;;6156997;23;20495;-61
2023/08/15 14:23:13;;;;;;;6.63;6.13;;;;;;;;;;6156931;23;20455;-61
2023/08/15 14:25:40;;;;;;;6.30;5.80;;;;;;;;;;6156568;23;20459;-61
2023/08/15 14:28:08;;;;;;;7.20;6.60;;;;;;;;;;6156880;23;20494;-61
2023/08/15 14:30:35;;;;;;;6.17;5.80;;;;;;;;;;6157102;23;20522;-61
2023/08/15 14:33:02;;;;;;;5.93;5.53;;;;;;;;;;6156810;23;20491;-61
2023/08/15 14:35:29;;;;;;;5.33;5.03;;;;;;;;;;6156685;23;20417;-61
2023/08/15 14:37:56;;;;;;;5.07;4.53;;;;;;;;;;6156915;23;20510;-61
2023/08/15 14:40:22;;;;;;;5.70;4.90;;;;;;;;;;6156768;23;20407;-61
2023/08/15 14:42:49;;;;;;;7.37;5.20;;;;;;;;;;6156802;23;20453;-61
2023/08/15 14:45:18;;;;;;;7.20;6.17;;;;;;;;;;6156727;23;20513;-61